Aérodrome :
LOGIN :

S'inscrire | Disclaimer

   EN    FR    IT 

 










Légende :    VFR   VFR Marginal   IFR   IFR Intensif   IFR Très Intensif
Visi : 
Plafond : 
>= 8 km
>= 3000ft
5 à 8 km
1000 à 3000 ft
1500m à 5 km
500 à 1000 ft
800 à 1500m
200 à 500 ft
< 800m
< 200 ft
Symboles :   Orages  Brouillard  Fortes neiges  Fortes précipitations  Vent > 20 kt
SIGMETs :   Divers  Orages  Givrage  Turbulence  Onde Orograph.  Cendres Volcan.







- Altitude de l'aérodrome : 162 ft
- Code IATA : BOD
- Voir les cartes d'approche


LFBD - Bordeaux / Merignac

DERNIER METAR :
  • 211230Z AUTO 10007KT 9999 BKN042 08/02 Q1010 NOSIG

METARs EXPIRÉS :
  • 211200Z AUTO 11008KT 9999 FEW044 08/02 Q1010 NOSIG
  • 211130Z AUTO 10008KT 9000 NSC 08/01 Q1010 NOSIG
  • 211100Z AUTO 11007KT 9000 NSC 07/02 Q1010 NOSIG
  • 211030Z AUTO 10008KT CAVOK 06/01 Q1010 NOSIG
  • 211000Z AUTO 11007KT 8000 NSC 05/01 Q1010 NOSIG

TAF TAF LFBD
Valide du 21 à 12h jusqu'au 22 à 18h UTC


211100Z 2112/2218 11005KT CAVOK TX13/2214Z TN03/2205Z
BECMG 2121/2123 4000 BR NSC
PROB30 2203/2207 0500 FG VV///
BECMG 2208/2210 CAVOK
ATIS : +33 5 57 92 81 04
Pas de NOTAMs connus pour ce terrain.



MET'MAP, la Météo Aéronautique d'un coup d'oeil ! - Copyright ORBIFLY Décembre 2007 - Disclaimer

ORBIFLY MET'MAP TEAM :

Programmation & Développement : Alexandra Zaïnal
Conception & Développement : Baudouin d'Aumeries
Co-Programmation & Développement : Marc-Olivier Méhu
Soutien technique & logistique : Manuel Goepfert

Contact : metmap@orbifly.com




SOURCES & CREDITS :

   NOAA